createdAt,value
2018-07-27T00:01:20.558Z,93445.74
2018-07-27T00:16:24.393Z,93457.27
2018-07-27T00:31:28.300Z,93445.19
2018-07-27T00:46:32.238Z,93443.05
2018-07-27T01:01:36.080Z,93445.74
2018-07-27T01:16:40.026Z,93446.41
2018-07-27T01:31:43.860Z,93447.48
2018-07-27T01:46:47.943Z,93439.17
2018-07-27T02:01:51.728Z,93436.74
2018-07-27T02:16:55.563Z,93430.63
2018-07-27T02:31:59.387Z,93431.38
2018-07-27T02:47:03.261Z,93426.91
2018-07-27T03:02:07.254Z,93427.83
2018-07-27T03:17:11.143Z,93443.12
2018-07-27T03:32:14.976Z,93426.98
2018-07-27T03:47:18.787Z,93423.77
2018-07-27T04:02:22.634Z,93434.74
2018-07-27T04:17:26.438Z,93436.48
2018-07-27T04:32:30.267Z,93443.78
2018-07-27T04:47:34.175Z,93448.02
2018-07-27T05:02:37.981Z,93450.75
2018-07-27T05:17:41.778Z,93447.47
2018-07-27T05:32:45.563Z,93449.06
2018-07-27T05:47:49.359Z,93461.04
2018-07-27T06:02:53.203Z,93461.78
2018-07-27T06:17:57.084Z,93463.88
2018-07-27T06:33:00.891Z,93467.83
2018-07-27T06:48:04.694Z,93467.27
2018-07-27T07:03:08.533Z,93479.69
2018-07-27T07:18:12.366Z,93481.85
2018-07-27T07:33:16.204Z,93490.78
2018-07-27T07:48:20.250Z,93476.59
2018-07-27T08:03:24.044Z,93464.50
2018-07-27T08:18:27.984Z,93452.05
2018-07-27T08:33:32.044Z,93446.89
2018-07-27T08:48:35.882Z,93426.25
2018-07-27T09:03:39.766Z,93423.09
2018-07-27T09:18:43.580Z,93402.48
2018-07-27T09:33:47.454Z,93372.20
2018-07-27T09:48:53.435Z,93353.91
2018-07-27T10:03:57.283Z,93349.30
2018-07-27T10:19:01.166Z,93336.95
2018-07-27T10:34:05.378Z,93332.41
2018-07-27T10:49:09.242Z,93312.66
2018-07-27T11:04:13.372Z,93306.27
2018-07-27T11:19:17.255Z,93305.09
2018-07-27T11:34:21.111Z,93295.77
2018-07-27T11:49:25.218Z,93287.63
2018-07-27T12:04:29.128Z,93268.84
2018-07-27T12:19:33.047Z,93250.33
2018-07-27T12:34:37.222Z,93257.77
2018-07-27T12:49:41.535Z,93256.09
2018-07-27T13:04:45.712Z,93256.80
2018-07-27T13:19:54.757Z,93258.03
2018-07-27T13:34:59.705Z,93285.91
2018-07-27T13:50:03.837Z,93296.76
2018-07-27T14:05:07.883Z,93315.44
2018-07-27T14:20:11.868Z,93316.37
2018-07-27T14:35:15.805Z,93313.77
2018-07-27T14:50:19.791Z,93320.16
2018-07-27T15:05:23.790Z,93302.87
2018-07-27T15:20:27.655Z,93299.81
2018-07-27T15:35:31.572Z,93323.28
2018-07-27T15:50:35.564Z,93333.83
2018-07-27T16:05:39.714Z,93329.52
2018-07-27T16:20:43.783Z,93344.97
2018-07-27T16:35:47.773Z,93349.98
2018-07-27T16:50:52.099Z,93379.91
2018-07-27T17:05:56.134Z,93382.03
2018-07-27T17:21:00.200Z,93380.55
2018-07-27T17:36:04.177Z,93402.25
2018-07-27T17:51:08.209Z,93410.75
2018-07-27T18:06:12.074Z,93412.48
2018-07-27T18:21:15.984Z,93416.94
2018-07-27T18:36:19.827Z,93417.66
2018-07-27T18:51:23.693Z,93425.90
2018-07-27T19:06:27.631Z,93442.38
2018-07-27T19:21:31.691Z,93444.98
2018-07-27T19:36:35.521Z,93456.30
2018-07-27T19:51:39.381Z,93448.98
2018-07-27T20:06:43.340Z,93423.53
2018-07-27T20:21:47.334Z,93423.51
2018-07-27T20:36:51.231Z,93435.19
2018-07-27T20:51:58.533Z,93426.46
2018-07-27T21:07:02.436Z,93422.13
2018-07-27T21:22:06.321Z,93409.08
2018-07-27T21:37:10.365Z,93373.16
2018-07-27T21:52:15.342Z,93357.13
2018-07-27T22:07:19.271Z,93351.89
2018-07-27T22:22:23.119Z,93362.05
2018-07-27T22:37:27.064Z,93370.23
2018-07-27T22:52:36.261Z,93360.45
2018-07-27T23:07:40.080Z,93358.97
2018-07-27T23:22:44.442Z,93367.19
2018-07-27T23:37:48.271Z,93353.53
2018-07-27T23:52:54.307Z,93349.38
